Startpagina
METAR-TAF:

METAR-TAF

Vliegvelden :

Brussels Airport. Zaventem

Brussel, België

breedte: 50-54N, lengte: 004-32E, hoogte: 55 m

Actueel weer

Dit bericht is 33 minuten geleden gemaakt, om 17:20 UTC
Wind 4 kt uit het westen
Temperatuur 12°C
Vochtigheid 71%
Druk 1034 hPa
Zicht 10 km of meer
Gebroken wolken op 3200 ft

METAR: EBBR 201720Z 26004KT 9999 BKN032 12/07 Q1034 NOSIG

Tijdstip: 18:53 (17:53 UTC)

Verwachting

Dit bericht is 53 minuten geleden gemaakt, om 17:00 UTC
Verwachting geldig van 20 om 18 UTC tot 21 om 24 UTC
Wind 3 kt uit het zuidwesten
Zicht 10 km of meer
Verspreide wolken op 3500 ft
Kans 30% :
Tijdelijke
van 21 om 05 UTC tot 21 om 09 UTC
Zicht: 3500 m
Gebroken wolken op 500 ft
nevel

TAF: EBBR 201700Z 2018/2124 23003KT 9999 SCT035 PROB30 TEMPO 2105/2109 3500 BR BKN005

Waarnemingen en weersverwachtingen van meer dan 4000 vliegvelden (METAR en TAF).

De beschikbare stations zijn de gele en rode punten op de kaart.

Ga met uw muis naar het station om de naam te zien.

Klik dan om waarnemingen en weersverwachtingen te zien.

kaart wijzigen: klik op de groene knoppen met een zwart kruis om in te zoomen, op de groene knop met een streepje om uit te zoomen of op de groene pijlen voor aangrenzende kaarten.


METAR-TAF: